createdAt,value
2024-04-22T00:05:03.141Z,7.55
2024-04-22T00:35:05.727Z,7.33
2024-04-22T01:05:09.771Z,6.64
2024-04-22T01:35:12.247Z,6.44
2024-04-22T02:05:14.672Z,5.96
2024-04-22T02:35:17.203Z,5.37
2024-04-22T03:05:19.768Z,5.15
2024-04-22T03:35:22.246Z,5.23
2024-04-22T04:05:24.795Z,5.11
2024-04-22T04:35:28.330Z,5.07
2024-04-22T05:05:30.830Z,7.23
2024-04-22T05:35:51.924Z,8.60
2024-04-22T06:05:54.374Z,9.05
2024-04-22T06:35:57.200Z,9.69
2024-04-22T07:05:59.618Z,11.37
2024-04-22T07:36:45.004Z,12.70
2024-04-22T08:06:47.491Z,13.82
2024-04-22T08:36:50.084Z,14.67
2024-04-22T09:06:52.551Z,15.11
2024-04-22T09:36:55.326Z,15.27
2024-04-22T10:06:57.794Z,16.07
2024-04-22T10:37:00.563Z,17.22
2024-04-22T11:07:03.477Z,16.85
2024-04-22T11:37:06.108Z,17.81
2024-04-22T12:07:09.566Z,17.60
2024-04-22T12:37:13.113Z,17.99
2024-04-22T13:07:15.900Z,18.57
2024-04-22T13:37:18.619Z,17.79
2024-04-22T14:07:21.380Z,18.01
2024-04-22T14:37:24.374Z,17.81
2024-04-22T15:07:27.747Z,16.71
2024-04-22T15:37:30.355Z,16.57
2024-04-22T16:07:33.228Z,15.40
2024-04-22T16:37:38.154Z,14.74
2024-04-22T17:07:40.688Z,13.92
2024-04-22T17:37:43.251Z,13.04
2024-04-22T18:07:46.455Z,12.48
2024-04-22T18:37:49.626Z,12.69
2024-04-22T19:07:52.818Z,12.10
2024-04-22T19:37:55.568Z,11.65
2024-04-22T20:07:58.370Z,11.08
2024-04-22T20:38:00.919Z,10.42
2024-04-22T21:08:03.708Z,10.58
2024-04-22T21:38:07.117Z,10.68
2024-04-22T22:08:10.516Z,10.24
2024-04-22T22:38:13.582Z,9.94
2024-04-22T23:08:16.302Z,10.08
2024-04-22T23:38:18.970Z,9.64
